sensor_id;sensor_type;location;lat;lon;timestamp;P1;durP1;ratioP1;P2;durP2;ratioP2
26325;SDS011;14032;52.510;7.342;2024-02-21T00:01:23;48.40;;;19.77;;
26325;SDS011;14032;52.510;7.342;2024-02-21T00:03:49;42.85;;;19.70;;
26325;SDS011;14032;52.510;7.342;2024-02-21T00:06:14;46.30;;;20.20;;
26325;SDS011;14032;52.510;7.342;2024-02-21T00:08:40;47.60;;;20.45;;
26325;SDS011;14032;52.510;7.342;2024-02-21T00:11:05;47.17;;;19.50;;
26325;SDS011;14032;52.510;7.342;2024-02-21T00:13:32;40.83;;;18.73;;
26325;SDS011;14032;52.510;7.342;2024-02-21T00:15:59;55.97;;;21.67;;
26325;SDS011;14032;52.510;7.342;2024-02-21T00:18:25;43.03;;;20.15;;
26325;SDS011;14032;52.510;7.342;2024-02-21T00:20:51;48.53;;;20.38;;
26325;SDS011;14032;52.510;7.342;2024-02-21T00:23:17;46.42;;;21.00;;
26325;SDS011;14032;52.510;7.342;2024-02-21T00:25:43;46.55;;;19.95;;
26325;SDS011;14032;52.510;7.342;2024-02-21T00:28:09;40.53;;;19.92;;
26325;SDS011;14032;52.510;7.342;2024-02-21T00:30:34;51.40;;;20.35;;
26325;SDS011;14032;52.510;7.342;2024-02-21T00:33:00;43.53;;;20.10;;
26325;SDS011;14032;52.510;7.342;2024-02-21T00:35:25;54.00;;;20.95;;
26325;SDS011;14032;52.510;7.342;2024-02-21T00:37:51;39.45;;;19.80;;
26325;SDS011;14032;52.510;7.342;2024-02-21T00:40:17;45.30;;;20.05;;
26325;SDS011;14032;52.510;7.342;2024-02-21T00:42:45;42.22;;;20.20;;
26325;SDS011;14032;52.510;7.342;2024-02-21T00:45:11;39.00;;;19.13;;
26325;SDS011;14032;52.510;7.342;2024-02-21T00:47:37;44.85;;;19.50;;
26325;SDS011;14032;52.510;7.342;2024-02-21T00:50:03;42.08;;;19.85;;
26325;SDS011;14032;52.510;7.342;2024-02-21T00:52:28;45.65;;;20.55;;
26325;SDS011;14032;52.510;7.342;2024-02-21T00:54:54;42.35;;;19.33;;
26325;SDS011;14032;52.510;7.342;2024-02-21T00:57:20;51.00;;;20.83;;
26325;SDS011;14032;52.510;7.342;2024-02-21T00:59:45;45.08;;;19.48;;
26325;SDS011;14032;52.510;7.342;2024-02-21T01:02:11;51.55;;;20.85;;
26325;SDS011;14032;52.510;7.342;2024-02-21T01:04:36;39.20;;;18.58;;
26325;SDS011;14032;52.510;7.342;2024-02-21T01:07:02;37.53;;;19.67;;
26325;SDS011;14032;52.510;7.342;2024-02-21T01:09:28;41.72;;;19.60;;
26325;SDS011;14032;52.510;7.342;2024-02-21T01:11:53;36.85;;;19.40;;
26325;SDS011;14032;52.510;7.342;2024-02-21T01:14:19;41.08;;;19.35;;
26325;SDS011;14032;52.510;7.342;2024-02-21T01:16:45;44.47;;;20.23;;
26325;SDS011;14032;52.510;7.342;2024-02-21T01:19:10;41.22;;;18.88;;
26325;SDS011;14032;52.510;7.342;2024-02-21T01:21:36;36.40;;;19.17;;
26325;SDS011;14032;52.510;7.342;2024-02-21T01:24:01;43.95;;;19.15;;
26325;SDS011;14032;52.510;7.342;2024-02-21T01:26:27;40.15;;;18.52;;
26325;SDS011;14032;52.510;7.342;2024-02-21T01:28:53;46.42;;;18.30;;
26325;SDS011;14032;52.510;7.342;2024-02-21T01:31:18;42.17;;;18.25;;
26325;SDS011;14032;52.510;7.342;2024-02-21T01:33:45;35.10;;;17.35;;
26325;SDS011;14032;52.510;7.342;2024-02-21T01:36:10;36.38;;;18.23;;
26325;SDS011;14032;52.510;7.342;2024-02-21T01:38:37;45.28;;;18.10;;
26325;SDS011;14032;52.510;7.342;2024-02-21T01:41:03;35.40;;;17.95;;
26325;SDS011;14032;52.510;7.342;2024-02-21T01:43:28;35.60;;;17.98;;
26325;SDS011;14032;52.510;7.342;2024-02-21T01:45:55;38.72;;;18.70;;
26325;SDS011;14032;52.510;7.342;2024-02-21T01:48:24;37.72;;;18.45;;
26325;SDS011;14032;52.510;7.342;2024-02-21T01:50:51;37.35;;;16.95;;
26325;SDS011;14032;52.510;7.342;2024-02-21T01:53:20;37.10;;;16.80;;
26325;SDS011;14032;52.510;7.342;2024-02-21T01:55:48;36.15;;;16.55;;
26325;SDS011;14032;52.510;7.342;2024-02-21T01:58:17;38.05;;;16.70;;
26325;SDS011;14032;52.510;7.342;2024-02-21T02:00:45;37.08;;;16.70;;
26325;SDS011;14032;52.510;7.342;2024-02-21T02:03:12;37.65;;;16.55;;
26325;SDS011;14032;52.510;7.342;2024-02-21T02:05:45;30.35;;;15.43;;
26325;SDS011;14032;52.510;7.342;2024-02-21T02:08:15;34.67;;;16.08;;
26325;SDS011;14032;52.510;7.342;2024-02-21T02:10:44;32.45;;;16.83;;
26325;SDS011;14032;52.510;7.342;2024-02-21T02:13:11;34.38;;;15.90;;
26325;SDS011;14032;52.510;7.342;2024-02-21T02:15:46;38.42;;;17.23;;
26325;SDS011;14032;52.510;7.342;2024-02-21T02:18:14;31.13;;;16.65;;
26325;SDS011;14032;52.510;7.342;2024-02-21T02:20:40;30.55;;;16.23;;
26325;SDS011;14032;52.510;7.342;2024-02-21T02:25:48;38.33;;;16.10;;
26325;SDS011;14032;52.510;7.342;2024-02-21T02:28:17;30.35;;;16.30;;
26325;SDS011;14032;52.510;7.342;2024-02-21T02:30:43;35.13;;;16.13;;
26325;SDS011;14032;52.510;7.342;2024-02-21T02:33:08;38.47;;;16.65;;
26325;SDS011;14032;52.510;7.342;2024-02-21T02:35:35;36.97;;;15.98;;
26325;SDS011;14032;52.510;7.342;2024-02-21T02:38:01;30.30;;;15.60;;
26325;SDS011;14032;52.510;7.342;2024-02-21T02:40:28;40.25;;;16.65;;
26325;SDS011;14032;52.510;7.342;2024-02-21T02:42:53;41.15;;;16.77;;
26325;SDS011;14032;52.510;7.342;2024-02-21T02:45:22;29.80;;;15.73;;
26325;SDS011;14032;52.510;7.342;2024-02-21T02:47:54;41.33;;;17.17;;
26325;SDS011;14032;52.510;7.342;2024-02-21T02:50:22;36.60;;;17.00;;
26325;SDS011;14032;52.510;7.342;2024-02-21T02:52:52;39.55;;;16.40;;
26325;SDS011;14032;52.510;7.342;2024-02-21T02:55:18;37.05;;;16.50;;
26325;SDS011;14032;52.510;7.342;2024-02-21T02:57:44;33.55;;;16.20;;
26325;SDS011;14032;52.510;7.342;2024-02-21T03:00:10;32.20;;;16.48;;
26325;SDS011;14032;52.510;7.342;2024-02-21T03:02:37;34.92;;;16.15;;
26325;SDS011;14032;52.510;7.342;2024-02-21T03:05:11;37.67;;;16.45;;
26325;SDS011;14032;52.510;7.342;2024-02-21T03:07:41;34.50;;;16.02;;
26325;SDS011;14032;52.510;7.342;2024-02-21T03:10:07;36.15;;;16.58;;
26325;SDS011;14032;52.510;7.342;2024-02-21T03:12:33;30.85;;;16.48;;
26325;SDS011;14032;52.510;7.342;2024-02-21T03:14:59;32.58;;;16.95;;
26325;SDS011;14032;52.510;7.342;2024-02-21T03:17:25;41.60;;;18.52;;
26325;SDS011;14032;52.510;7.342;2024-02-21T03:19:53;33.22;;;17.92;;
26325;SDS011;14032;52.510;7.342;2024-02-21T03:22:23;39.88;;;18.33;;
26325;SDS011;14032;52.510;7.342;2024-02-21T03:24:49;35.60;;;18.58;;
26325;SDS011;14032;52.510;7.342;2024-02-21T03:27:18;44.65;;;19.05;;
26325;SDS011;14032;52.510;7.342;2024-02-21T03:29:46;38.45;;;19.98;;
26325;SDS011;14032;52.510;7.342;2024-02-21T03:32:12;37.05;;;19.25;;
26325;SDS011;14032;52.510;7.342;2024-02-21T03:34:38;39.47;;;19.77;;
26325;SDS011;14032;52.510;7.342;2024-02-21T03:37:03;44.72;;;20.92;;
26325;SDS011;14032;52.510;7.342;2024-02-21T03:39:33;38.88;;;19.70;;
26325;SDS011;14032;52.510;7.342;2024-02-21T03:41:58;45.13;;;21.40;;
26325;SDS011;14032;52.510;7.342;2024-02-21T03:44:29;42.15;;;19.83;;
26325;SDS011;14032;52.510;7.342;2024-02-21T03:46:58;37.95;;;19.15;;
26325;SDS011;14032;52.510;7.342;2024-02-21T03:49:24;39.75;;;20.65;;
26325;SDS011;14032;52.510;7.342;2024-02-21T03:51:50;45.03;;;20.40;;
26325;SDS011;14032;52.510;7.342;2024-02-21T03:54:16;44.35;;;20.73;;
26325;SDS011;14032;52.510;7.342;2024-02-21T03:56:41;39.60;;;20.83;;
26325;SDS011;14032;52.510;7.342;2024-02-21T03:59:07;43.20;;;20.25;;
26325;SDS011;14032;52.510;7.342;2024-02-21T04:01:36;39.65;;;21.10;;
26325;SDS011;14032;52.510;7.342;2024-02-21T04:04:02;42.05;;;21.35;;
26325;SDS011;14032;52.510;7.342;2024-02-21T04:06:28;43.13;;;22.27;;
26325;SDS011;14032;52.510;7.342;2024-02-21T04:08:53;44.33;;;21.67;;
26325;SDS011;14032;52.510;7.342;2024-02-21T04:11:19;39.50;;;21.77;;
26325;SDS011;14032;52.510;7.342;2024-02-21T04:13:45;46.38;;;21.45;;
26325;SDS011;14032;52.510;7.342;2024-02-21T04:16:13;43.70;;;22.02;;
26325;SDS011;14032;52.510;7.342;2024-02-21T04:18:39;44.10;;;21.00;;
26325;SDS011;14032;52.510;7.342;2024-02-21T04:21:05;45.75;;;21.67;;
26325;SDS011;14032;52.510;7.342;2024-02-21T04:23:31;41.88;;;22.13;;
26325;SDS011;14032;52.510;7.342;2024-02-21T04:25:56;38.78;;;21.45;;
26325;SDS011;14032;52.510;7.342;2024-02-21T04:28:22;41.58;;;22.15;;
26325;SDS011;14032;52.510;7.342;2024-02-21T04:30:47;41.45;;;21.42;;
26325;SDS011;14032;52.510;7.342;2024-02-21T04:33:13;42.55;;;22.17;;
26325;SDS011;14032;52.510;7.342;2024-02-21T04:35:38;42.65;;;20.83;;
26325;SDS011;14032;52.510;7.342;2024-02-21T04:38:04;47.47;;;22.67;;
26325;SDS011;14032;52.510;7.342;2024-02-21T04:40:30;44.63;;;21.75;;
26325;SDS011;14032;52.510;7.342;2024-02-21T04:42:56;42.63;;;22.35;;
26325;SDS011;14032;52.510;7.342;2024-02-21T04:45:22;44.90;;;22.50;;
26325;SDS011;14032;52.510;7.342;2024-02-21T04:47:48;41.70;;;21.27;;
26325;SDS011;14032;52.510;7.342;2024-02-21T04:50:13;47.22;;;23.77;;
26325;SDS011;14032;52.510;7.342;2024-02-21T04:52:39;40.22;;;21.20;;
26325;SDS011;14032;52.510;7.342;2024-02-21T04:55:05;40.25;;;22.02;;
26325;SDS011;14032;52.510;7.342;2024-02-21T04:57:31;51.10;;;23.10;;
26325;SDS011;14032;52.510;7.342;2024-02-21T04:59:56;41.35;;;22.42;;
26325;SDS011;14032;52.510;7.342;2024-02-21T05:02:22;44.85;;;21.67;;
26325;SDS011;14032;52.510;7.342;2024-02-21T05:04:49;45.50;;;21.17;;
26325;SDS011;14032;52.510;7.342;2024-02-21T05:07:18;45.78;;;22.55;;
26325;SDS011;14032;52.510;7.342;2024-02-21T05:09:44;45.75;;;21.40;;
26325;SDS011;14032;52.510;7.342;2024-02-21T05:12:11;48.67;;;22.98;;
26325;SDS011;14032;52.510;7.342;2024-02-21T05:14:36;45.65;;;22.02;;
26325;SDS011;14032;52.510;7.342;2024-02-21T05:17:02;43.55;;;21.45;;
26325;SDS011;14032;52.510;7.342;2024-02-21T05:19:28;50.00;;;21.73;;
26325;SDS011;14032;52.510;7.342;2024-02-21T05:21:54;43.47;;;20.85;;
26325;SDS011;14032;52.510;7.342;2024-02-21T05:24:20;41.22;;;20.65;;
26325;SDS011;14032;52.510;7.342;2024-02-21T05:26:46;45.90;;;20.75;;
26325;SDS011;14032;52.510;7.342;2024-02-21T05:29:13;39.88;;;21.25;;
26325;SDS011;14032;52.510;7.342;2024-02-21T05:34:17;47.25;;;21.77;;
26325;SDS011;14032;52.510;7.342;2024-02-21T05:36:44;34.40;;;19.85;;
26325;SDS011;14032;52.510;7.342;2024-02-21T05:39:09;44.20;;;20.05;;
26325;SDS011;14032;52.510;7.342;2024-02-21T05:41:35;43.28;;;20.48;;
26325;SDS011;14032;52.510;7.342;2024-02-21T05:44:01;40.22;;;20.25;;
26325;SDS011;14032;52.510;7.342;2024-02-21T05:46:28;45.50;;;21.23;;
26325;SDS011;14032;52.510;7.342;2024-02-21T05:48:53;42.00;;;19.92;;
26325;SDS011;14032;52.510;7.342;2024-02-21T05:51:19;41.25;;;19.58;;
26325;SDS011;14032;52.510;7.342;2024-02-21T05:53:45;37.88;;;18.83;;
26325;SDS011;14032;52.510;7.342;2024-02-21T05:56:11;39.10;;;19.67;;
26325;SDS011;14032;52.510;7.342;2024-02-21T05:58:37;37.65;;;19.98;;
26325;SDS011;14032;52.510;7.342;2024-02-21T06:01:03;35.45;;;19.05;;
26325;SDS011;14032;52.510;7.342;2024-02-21T06:03:30;40.67;;;19.13;;
26325;SDS011;14032;52.510;7.342;2024-02-21T06:05:55;38.45;;;18.38;;
26325;SDS011;14032;52.510;7.342;2024-02-21T06:08:21;42.63;;;19.02;;
26325;SDS011;14032;52.510;7.342;2024-02-21T06:10:47;42.35;;;18.02;;
26325;SDS011;14032;52.510;7.342;2024-02-21T06:13:13;41.10;;;18.77;;
26325;SDS011;14032;52.510;7.342;2024-02-21T06:15:40;35.58;;;17.02;;
26325;SDS011;14032;52.510;7.342;2024-02-21T06:18:06;36.42;;;16.80;;
26325;SDS011;14032;52.510;7.342;2024-02-21T06:20:32;37.30;;;18.25;;
26325;SDS011;14032;52.510;7.342;2024-02-21T06:22:57;33.75;;;16.67;;
26325;SDS011;14032;52.510;7.342;2024-02-21T06:25:23;32.63;;;16.15;;
26325;SDS011;14032;52.510;7.342;2024-02-21T06:27:48;33.03;;;16.55;;
26325;SDS011;14032;52.510;7.342;2024-02-21T06:30:14;38.30;;;17.20;;
26325;SDS011;14032;52.510;7.342;2024-02-21T06:32:40;32.45;;;16.55;;
26325;SDS011;14032;52.510;7.342;2024-02-21T06:35:05;37.67;;;16.60;;
26325;SDS011;14032;52.510;7.342;2024-02-21T06:37:31;29.48;;;15.88;;
26325;SDS011;14032;52.510;7.342;2024-02-21T06:39:57;28.50;;;14.20;;
26325;SDS011;14032;52.510;7.342;2024-02-21T06:42:26;35.97;;;15.50;;
26325;SDS011;14032;52.510;7.342;2024-02-21T06:44:52;29.88;;;14.98;;
26325;SDS011;14032;52.510;7.342;2024-02-21T06:47:18;28.13;;;15.60;;
26325;SDS011;14032;52.510;7.342;2024-02-21T06:49:47;30.25;;;15.70;;
26325;SDS011;14032;52.510;7.342;2024-02-21T06:52:15;29.20;;;14.70;;
26325;SDS011;14032;52.510;7.342;2024-02-21T06:54:45;30.35;;;14.68;;
26325;SDS011;14032;52.510;7.342;2024-02-21T06:57:14;25.38;;;14.20;;
26325;SDS011;14032;52.510;7.342;2024-02-21T06:59:43;30.15;;;14.82;;
26325;SDS011;14032;52.510;7.342;2024-02-21T07:02:11;27.90;;;14.73;;
26325;SDS011;14032;52.510;7.342;2024-02-21T07:04:40;31.20;;;14.13;;
26325;SDS011;14032;52.510;7.342;2024-02-21T07:07:06;31.67;;;13.27;;
26325;SDS011;14032;52.510;7.342;2024-02-21T07:09:32;33.22;;;13.18;;
26325;SDS011;14032;52.510;7.342;2024-02-21T07:11:58;29.60;;;12.77;;
26325;SDS011;14032;52.510;7.342;2024-02-21T07:14:24;25.80;;;13.13;;
26325;SDS011;14032;52.510;7.342;2024-02-21T07:16:50;32.22;;;14.52;;
26325;SDS011;14032;52.510;7.342;2024-02-21T07:19:17;28.17;;;12.27;;
26325;SDS011;14032;52.510;7.342;2024-02-21T07:21:43;27.30;;;12.70;;
26325;SDS011;14032;52.510;7.342;2024-02-21T07:24:18;23.35;;;11.98;;
26325;SDS011;14032;52.510;7.342;2024-02-21T07:26:43;26.23;;;12.52;;
26325;SDS011;14032;52.510;7.342;2024-02-21T07:29:09;22.10;;;12.30;;
26325;SDS011;14032;52.510;7.342;2024-02-21T07:31:42;26.52;;;12.85;;
26325;SDS011;14032;52.510;7.342;2024-02-21T07:34:09;24.02;;;12.02;;
26325;SDS011;14032;52.510;7.342;2024-02-21T07:36:38;24.85;;;12.27;;
26325;SDS011;14032;52.510;7.342;2024-02-21T07:39:06;24.88;;;12.23;;
26325;SDS011;14032;52.510;7.342;2024-02-21T07:41:36;24.08;;;12.20;;
26325;SDS011;14032;52.510;7.342;2024-02-21T07:44:03;27.08;;;11.85;;
26325;SDS011;14032;52.510;7.342;2024-02-21T07:46:29;26.88;;;12.18;;
26325;SDS011;14032;52.510;7.342;2024-02-21T07:48:55;23.33;;;11.65;;
26325;SDS011;14032;52.510;7.342;2024-02-21T07:51:27;31.80;;;11.77;;
26325;SDS011;14032;52.510;7.342;2024-02-21T07:53:53;20.58;;;11.15;;
26325;SDS011;14032;52.510;7.342;2024-02-21T07:56:20;29.98;;;11.85;;
26325;SDS011;14032;52.510;7.342;2024-02-21T07:58:45;28.98;;;12.60;;
26325;SDS011;14032;52.510;7.342;2024-02-21T08:01:11;30.02;;;12.05;;
26325;SDS011;14032;52.510;7.342;2024-02-21T08:03:36;22.67;;;10.98;;
26325;SDS011;14032;52.510;7.342;2024-02-21T08:06:02;21.10;;;10.75;;
26325;SDS011;14032;52.510;7.342;2024-02-21T08:08:29;24.20;;;11.05;;
26325;SDS011;14032;52.510;7.342;2024-02-21T08:10:55;27.08;;;11.80;;
26325;SDS011;14032;52.510;7.342;2024-02-21T08:13:20;22.60;;;11.25;;
26325;SDS011;14032;52.510;7.342;2024-02-21T08:15:47;25.92;;;12.35;;
26325;SDS011;14032;52.510;7.342;2024-02-21T08:18:13;22.90;;;11.88;;
26325;SDS011;14032;52.510;7.342;2024-02-21T08:20:40;31.13;;;11.82;;
26325;SDS011;14032;52.510;7.342;2024-02-21T08:23:06;27.92;;;12.25;;
26325;SDS011;14032;52.510;7.342;2024-02-21T08:25:31;24.63;;;12.07;;
26325;SDS011;14032;52.510;7.342;2024-02-21T08:27:58;24.50;;;11.15;;
26325;SDS011;14032;52.510;7.342;2024-02-21T08:30:26;27.95;;;12.20;;
26325;SDS011;14032;52.510;7.342;2024-02-21T08:32:53;23.65;;;11.98;;
26325;SDS011;14032;52.510;7.342;2024-02-21T08:35:19;24.30;;;11.77;;
26325;SDS011;14032;52.510;7.342;2024-02-21T08:37:49;27.70;;;11.85;;
26325;SDS011;14032;52.510;7.342;2024-02-21T08:40:15;28.15;;;12.80;;
26325;SDS011;14032;52.510;7.342;2024-02-21T08:42:46;24.55;;;12.43;;
26325;SDS011;14032;52.510;7.342;2024-02-21T08:45:13;22.33;;;11.98;;
26325;SDS011;14032;52.510;7.342;2024-02-21T08:47:39;31.25;;;12.60;;
26325;SDS011;14032;52.510;7.342;2024-02-21T08:50:05;26.25;;;11.85;;
26325;SDS011;14032;52.510;7.342;2024-02-21T08:52:32;27.75;;;12.10;;
26325;SDS011;14032;52.510;7.342;2024-02-21T08:54:58;28.00;;;11.90;;
26325;SDS011;14032;52.510;7.342;2024-02-21T08:57:23;24.00;;;11.52;;
26325;SDS011;14032;52.510;7.342;2024-02-21T08:59:49;27.98;;;12.65;;
26325;SDS011;14032;52.510;7.342;2024-02-21T09:02:16;24.42;;;12.00;;
26325;SDS011;14032;52.510;7.342;2024-02-21T09:04:41;30.10;;;12.07;;
26325;SDS011;14032;52.510;7.342;2024-02-21T09:07:08;22.05;;;11.75;;
26325;SDS011;14032;52.510;7.342;2024-02-21T09:09:35;28.45;;;11.85;;
26325;SDS011;14032;52.510;7.342;2024-02-21T09:12:00;27.38;;;11.43;;
26325;SDS011;14032;52.510;7.342;2024-02-21T09:14:31;26.65;;;10.45;;
26325;SDS011;14032;52.510;7.342;2024-02-21T09:16:57;23.33;;;10.85;;
26325;SDS011;14032;52.510;7.342;2024-02-21T09:19:24;20.33;;;10.25;;
26325;SDS011;14032;52.510;7.342;2024-02-21T09:21:49;21.65;;;10.38;;
26325;SDS011;14032;52.510;7.342;2024-02-21T09:24:17;19.48;;;10.05;;
26325;SDS011;14032;52.510;7.342;2024-02-21T09:26:42;18.25;;;8.75;;
26325;SDS011;14032;52.510;7.342;2024-02-21T09:29:08;23.90;;;9.75;;
26325;SDS011;14032;52.510;7.342;2024-02-21T09:31:36;24.15;;;9.65;;
26325;SDS011;14032;52.510;7.342;2024-02-21T09:34:03;17.77;;;8.77;;
26325;SDS011;14032;52.510;7.342;2024-02-21T09:36:29;22.40;;;8.60;;
26325;SDS011;14032;52.510;7.342;2024-02-21T09:38:55;17.42;;;8.75;;
26325;SDS011;14032;52.510;7.342;2024-02-21T09:43:50;22.48;;;8.45;;
26325;SDS011;14032;52.510;7.342;2024-02-21T09:46:30;21.80;;;8.70;;
26325;SDS011;14032;52.510;7.342;2024-02-21T09:51:40;20.65;;;8.82;;
26325;SDS011;14032;52.510;7.342;2024-02-21T09:54:08;17.33;;;7.70;;
26325;SDS011;14032;52.510;7.342;2024-02-21T09:56:33;19.35;;;8.00;;
26325;SDS011;14032;52.510;7.342;2024-02-21T09:58:59;18.13;;;7.60;;
26325;SDS011;14032;52.510;7.342;2024-02-21T10:01:30;17.27;;;7.55;;
26325;SDS011;14032;52.510;7.342;2024-02-21T10:03:57;22.77;;;8.15;;
26325;SDS011;14032;52.510;7.342;2024-02-21T10:06:23;20.70;;;9.15;;
26325;SDS011;14032;52.510;7.342;2024-02-21T10:08:55;20.77;;;8.20;;
26325;SDS011;14032;52.510;7.342;2024-02-21T10:11:24;17.92;;;7.78;;
26325;SDS011;14032;52.510;7.342;2024-02-21T10:13:50;15.82;;;6.90;;
26325;SDS011;14032;52.510;7.342;2024-02-21T10:16:16;23.38;;;7.80;;
26325;SDS011;14032;52.510;7.342;2024-02-21T10:18:42;19.73;;;6.95;;
26325;SDS011;14032;52.510;7.342;2024-02-21T10:21:08;19.17;;;7.90;;
26325;SDS011;14032;52.510;7.342;2024-02-21T10:23:47;15.70;;;6.97;;
26325;SDS011;14032;52.510;7.342;2024-02-21T10:26:14;15.40;;;7.15;;
26325;SDS011;14032;52.510;7.342;2024-02-21T10:28:41;14.13;;;6.65;;
26325;SDS011;14032;52.510;7.342;2024-02-21T10:34:01;16.75;;;6.50;;
26325;SDS011;14032;52.510;7.342;2024-02-21T10:36:29;14.27;;;6.60;;
26325;SDS011;14032;52.510;7.342;2024-02-21T10:38:55;17.10;;;7.75;;
26325;SDS011;14032;52.510;7.342;2024-02-21T10:41:21;17.13;;;7.28;;
26325;SDS011;14032;52.510;7.342;2024-02-21T10:43:50;19.67;;;6.63;;
26325;SDS011;14032;52.510;7.342;2024-02-21T10:46:20;13.38;;;6.75;;
26325;SDS011;14032;52.510;7.342;2024-02-21T10:48:47;17.55;;;6.72;;
26325;SDS011;14032;52.510;7.342;2024-02-21T10:51:18;15.77;;;6.25;;
26325;SDS011;14032;52.510;7.342;2024-02-21T10:56:29;14.80;;;6.13;;
26325;SDS011;14032;52.510;7.342;2024-02-21T10:59:00;11.85;;;6.25;;
26325;SDS011;14032;52.510;7.342;2024-02-21T11:01:27;13.85;;;6.45;;
26325;SDS011;14032;52.510;7.342;2024-02-21T11:03:56;18.02;;;8.07;;
26325;SDS011;14032;52.510;7.342;2024-02-21T11:06:44;16.13;;;7.35;;
26325;SDS011;14032;52.510;7.342;2024-02-21T11:09:11;14.85;;;6.72;;
26325;SDS011;14032;52.510;7.342;2024-02-21T11:11:43;17.25;;;6.93;;
26325;SDS011;14032;52.510;7.342;2024-02-21T11:14:21;15.80;;;7.55;;
26325;SDS011;14032;52.510;7.342;2024-02-21T11:16:51;18.67;;;7.78;;
26325;SDS011;14032;52.510;7.342;2024-02-21T11:19:23;18.48;;;7.57;;
26325;SDS011;14032;52.510;7.342;2024-02-21T11:21:51;17.45;;;7.68;;
26325;SDS011;14032;52.510;7.342;2024-02-21T11:26:56;13.20;;;6.93;;
26325;SDS011;14032;52.510;7.342;2024-02-21T11:29:33;13.15;;;6.32;;
26325;SDS011;14032;52.510;7.342;2024-02-21T11:32:05;16.05;;;7.80;;
26325;SDS011;14032;52.510;7.342;2024-02-21T11:34:35;16.08;;;6.47;;
26325;SDS011;14032;52.510;7.342;2024-02-21T11:37:01;14.80;;;6.57;;
26325;SDS011;14032;52.510;7.342;2024-02-21T11:39:27;13.30;;;6.18;;
26325;SDS011;14032;52.510;7.342;2024-02-21T11:42:02;11.57;;;6.28;;
26325;SDS011;14032;52.510;7.342;2024-02-21T11:44:33;14.43;;;6.10;;
26325;SDS011;14032;52.510;7.342;2024-02-21T11:47:00;15.98;;;6.20;;
26325;SDS011;14032;52.510;7.342;2024-02-21T11:49:26;14.15;;;6.57;;
26325;SDS011;14032;52.510;7.342;2024-02-21T11:51:59;12.00;;;6.45;;
26325;SDS011;14032;52.510;7.342;2024-02-21T11:54:32;12.65;;;5.45;;
26325;SDS011;14032;52.510;7.342;2024-02-21T11:56:59;9.52;;;5.00;;
26325;SDS011;14032;52.510;7.342;2024-02-21T11:59:25;10.35;;;5.18;;
26325;SDS011;14032;52.510;7.342;2024-02-21T12:01:52;9.10;;;4.75;;
26325;SDS011;14032;52.510;7.342;2024-02-21T12:04:21;11.02;;;5.00;;
26325;SDS011;14032;52.510;7.342;2024-02-21T12:06:48;10.43;;;4.65;;
26325;SDS011;14032;52.510;7.342;2024-02-21T12:09:15;11.38;;;4.82;;
26325;SDS011;14032;52.510;7.342;2024-02-21T12:11:41;9.57;;;4.82;;
26325;SDS011;14032;52.510;7.342;2024-02-21T12:14:07;7.65;;;4.05;;
26325;SDS011;14032;52.510;7.342;2024-02-21T12:16:34;8.52;;;4.22;;
26325;SDS011;14032;52.510;7.342;2024-02-21T12:19:04;9.88;;;4.68;;
26325;SDS011;14032;52.510;7.342;2024-02-21T12:21:30;10.75;;;4.88;;
26325;SDS011;14032;52.510;7.342;2024-02-21T12:23:57;11.60;;;4.70;;
26325;SDS011;14032;52.510;7.342;2024-02-21T12:26:24;10.23;;;4.43;;
26325;SDS011;14032;52.510;7.342;2024-02-21T12:28:50;13.45;;;4.05;;
26325;SDS011;14032;52.510;7.342;2024-02-21T12:31:16;9.68;;;3.72;;
26325;SDS011;14032;52.510;7.342;2024-02-21T12:33:42;10.85;;;4.45;;
26325;SDS011;14032;52.510;7.342;2024-02-21T12:36:09;8.45;;;4.13;;
26325;SDS011;14032;52.510;7.342;2024-02-21T12:38:35;11.07;;;3.55;;
26325;SDS011;14032;52.510;7.342;2024-02-21T12:41:01;8.60;;;3.55;;
26325;SDS011;14032;52.510;7.342;2024-02-21T12:43:30;9.45;;;3.30;;
26325;SDS011;14032;52.510;7.342;2024-02-21T12:45:55;8.35;;;3.63;;
26325;SDS011;14032;52.510;7.342;2024-02-21T12:48:21;9.48;;;3.42;;
26325;SDS011;14032;52.510;7.342;2024-02-21T12:50:48;8.52;;;3.85;;
26325;SDS011;14032;52.510;7.342;2024-02-21T12:53:18;8.95;;;3.47;;
26325;SDS011;14032;52.510;7.342;2024-02-21T12:55:48;6.80;;;4.00;;
26325;SDS011;14032;52.510;7.342;2024-02-21T12:58:14;8.10;;;4.00;;
26325;SDS011;14032;52.510;7.342;2024-02-21T13:00:40;7.80;;;3.95;;
26325;SDS011;14032;52.510;7.342;2024-02-21T13:03:06;7.57;;;3.80;;
26325;SDS011;14032;52.510;7.342;2024-02-21T13:05:32;9.05;;;4.47;;
26325;SDS011;14032;52.510;7.342;2024-02-21T13:07:59;7.80;;;4.28;;
26325;SDS011;14032;52.510;7.342;2024-02-21T13:10:24;16.10;;;5.07;;
26325;SDS011;14032;52.510;7.342;2024-02-21T13:12:50;9.38;;;4.47;;
26325;SDS011;14032;52.510;7.342;2024-02-21T13:15:16;8.60;;;4.05;;
26325;SDS011;14032;52.510;7.342;2024-02-21T13:17:43;11.65;;;4.43;;
26325;SDS011;14032;52.510;7.342;2024-02-21T13:20:10;10.65;;;4.60;;
26325;SDS011;14032;52.510;7.342;2024-02-21T13:22:36;7.20;;;3.80;;
26325;SDS011;14032;52.510;7.342;2024-02-21T13:25:02;12.00;;;5.05;;
26325;SDS011;14032;52.510;7.342;2024-02-21T13:27:28;11.85;;;4.35;;
26325;SDS011;14032;52.510;7.342;2024-02-21T13:29:55;12.02;;;4.57;;
26325;SDS011;14032;52.510;7.342;2024-02-21T13:32:21;10.25;;;4.68;;
26325;SDS011;14032;52.510;7.342;2024-02-21T13:34:47;13.68;;;4.82;;
26325;SDS011;14032;52.510;7.342;2024-02-21T13:37:13;12.07;;;4.57;;
26325;SDS011;14032;52.510;7.342;2024-02-21T13:39:39;11.48;;;4.72;;
26325;SDS011;14032;52.510;7.342;2024-02-21T13:42:05;17.40;;;5.50;;
26325;SDS011;14032;52.510;7.342;2024-02-21T13:44:31;11.63;;;4.90;;
26325;SDS011;14032;52.510;7.342;2024-02-21T13:46:57;15.50;;;5.30;;
26325;SDS011;14032;52.510;7.342;2024-02-21T13:49:24;15.45;;;4.60;;
26325;SDS011;14032;52.510;7.342;2024-02-21T13:51:50;15.85;;;5.00;;
26325;SDS011;14032;52.510;7.342;2024-02-21T13:54:16;11.60;;;4.60;;
26325;SDS011;14032;52.510;7.342;2024-02-21T13:56:44;12.05;;;4.40;;
26325;SDS011;14032;52.510;7.342;2024-02-21T13:59:11;10.27;;;4.30;;
26325;SDS011;14032;52.510;7.342;2024-02-21T14:01:38;12.30;;;4.70;;
26325;SDS011;14032;52.510;7.342;2024-02-21T14:04:04;12.07;;;4.72;;
26325;SDS011;14032;52.510;7.342;2024-02-21T14:06:30;10.48;;;5.43;;
26325;SDS011;14032;52.510;7.342;2024-02-21T14:08:55;10.30;;;5.40;;
26325;SDS011;14032;52.510;7.342;2024-02-21T14:11:21;14.65;;;5.53;;
26325;SDS011;14032;52.510;7.342;2024-02-21T14:13:46;11.07;;;4.90;;
26325;SDS011;14032;52.510;7.342;2024-02-21T14:16:15;9.63;;;5.50;;
26325;SDS011;14032;52.510;7.342;2024-02-21T14:18:41;10.68;;;4.90;;
26325;SDS011;14032;52.510;7.342;2024-02-21T14:21:09;12.45;;;6.18;;
26325;SDS011;14032;52.510;7.342;2024-02-21T14:23:36;14.20;;;5.80;;
26325;SDS011;14032;52.510;7.342;2024-02-21T14:26:03;15.02;;;6.07;;
26325;SDS011;14032;52.510;7.342;2024-02-21T14:28:29;13.55;;;6.45;;
26325;SDS011;14032;52.510;7.342;2024-02-21T14:30:54;16.63;;;7.18;;
26325;SDS011;14032;52.510;7.342;2024-02-21T14:33:23;16.98;;;6.22;;
26325;SDS011;14032;52.510;7.342;2024-02-21T14:35:50;17.45;;;8.63;;
26325;SDS011;14032;52.510;7.342;2024-02-21T14:38:16;16.65;;;6.47;;
26325;SDS011;14032;52.510;7.342;2024-02-21T14:40:44;17.70;;;6.65;;
26325;SDS011;14032;52.510;7.342;2024-02-21T14:43:10;12.85;;;6.45;;